sensor_id;sensor_type;location;lat;lon;timestamp;temperature;humidity
3994;DHT22;2011;48.238;13.948;2022-10-15T00:00:49;13.60;99.90
3994;DHT22;2011;48.238;13.948;2022-10-15T00:03:16;13.70;99.90
3994;DHT22;2011;48.238;13.948;2022-10-15T00:05:42;13.70;99.90
3994;DHT22;2011;48.238;13.948;2022-10-15T00:08:10;13.60;99.90
3994;DHT22;2011;48.238;13.948;2022-10-15T00:10:37;13.70;99.90
3994;DHT22;2011;48.238;13.948;2022-10-15T00:13:05;13.70;99.90
3994;DHT22;2011;48.238;13.948;2022-10-15T00:15:35;13.60;99.90
3994;DHT22;2011;48.238;13.948;2022-10-15T00:18:02;13.60;99.90
3994;DHT22;2011;48.238;13.948;2022-10-15T00:20:28;13.60;99.90
3994;DHT22;2011;48.238;13.948;2022-10-15T00:22:56;13.60;99.90
3994;DHT22;2011;48.238;13.948;2022-10-15T00:25:23;13.60;99.90
3994;DHT22;2011;48.238;13.948;2022-10-15T00:27:50;13.50;99.90
3994;DHT22;2011;48.238;13.948;2022-10-15T00:30:17;13.60;99.90
3994;DHT22;2011;48.238;13.948;2022-10-15T00:32:45;13.50;99.90
3994;DHT22;2011;48.238;13.948;2022-10-15T00:35:12;13.50;99.90
3994;DHT22;2011;48.238;13.948;2022-10-15T00:37:38;13.50;99.90
3994;DHT22;2011;48.238;13.948;2022-10-15T00:40:06;13.50;99.90
3994;DHT22;2011;48.238;13.948;2022-10-15T00:42:34;13.50;99.90
3994;DHT22;2011;48.238;13.948;2022-10-15T00:45:01;13.50;99.90
3994;DHT22;2011;48.238;13.948;2022-10-15T00:47:34;13.50;99.90
3994;DHT22;2011;48.238;13.948;2022-10-15T00:50:06;13.50;99.90
3994;DHT22;2011;48.238;13.948;2022-10-15T00:52:41;13.50;99.90
3994;DHT22;2011;48.238;13.948;2022-10-15T00:55:13;13.40;99.90
3994;DHT22;2011;48.238;13.948;2022-10-15T00:57:41;13.40;99.90
3994;DHT22;2011;48.238;13.948;2022-10-15T01:00:11;13.40;99.90
3994;DHT22;2011;48.238;13.948;2022-10-15T01:02:39;13.40;99.90
3994;DHT22;2011;48.238;13.948;2022-10-15T01:05:08;13.50;99.90
3994;DHT22;2011;48.238;13.948;2022-10-15T01:07:36;13.50;99.90
3994;DHT22;2011;48.238;13.948;2022-10-15T01:10:04;13.50;99.90
3994;DHT22;2011;48.238;13.948;2022-10-15T01:12:41;13.50;99.90
3994;DHT22;2011;48.238;13.948;2022-10-15T01:15:15;13.50;99.90
3994;DHT22;2011;48.238;13.948;2022-10-15T01:17:48;13.50;99.90
3994;DHT22;2011;48.238;13.948;2022-10-15T01:24:02;13.50;99.90
3994;DHT22;2011;48.238;13.948;2022-10-15T01:35:45;13.40;99.90
3994;DHT22;2011;48.238;13.948;2022-10-15T01:38:24;13.40;99.90
3994;DHT22;2011;48.238;13.948;2022-10-15T01:40:57;13.40;99.90
3994;DHT22;2011;48.238;13.948;2022-10-15T01:43:29;13.40;99.90
3994;DHT22;2011;48.238;13.948;2022-10-15T01:46:02;13.40;99.90
3994;DHT22;2011;48.238;13.948;2022-10-15T01:48:33;13.40;99.90
3994;DHT22;2011;48.238;13.948;2022-10-15T01:51:05;13.40;99.90
3994;DHT22;2011;48.238;13.948;2022-10-15T01:53:33;13.40;99.90
3994;DHT22;2011;48.238;13.948;2022-10-15T01:56:05;13.40;99.90
3994;DHT22;2011;48.238;13.948;2022-10-15T01:58:35;13.30;99.90
3994;DHT22;2011;48.238;13.948;2022-10-15T02:01:04;13.30;99.90
3994;DHT22;2011;48.238;13.948;2022-10-15T02:03:43;13.30;99.90
3994;DHT22;2011;48.238;13.948;2022-10-15T02:06:13;13.30;99.90
3994;DHT22;2011;48.238;13.948;2022-10-15T02:08:47;13.30;99.90
3994;DHT22;2011;48.238;13.948;2022-10-15T02:11:17;13.30;99.90
3994;DHT22;2011;48.238;13.948;2022-10-15T02:13:50;13.30;99.90
3994;DHT22;2011;48.238;13.948;2022-10-15T02:16:24;13.30;99.90
3994;DHT22;2011;48.238;13.948;2022-10-15T02:18:59;13.30;99.90
3994;DHT22;2011;48.238;13.948;2022-10-15T02:21:35;13.30;99.90
3994;DHT22;2011;48.238;13.948;2022-10-15T02:24:07;13.30;99.90
3994;DHT22;2011;48.238;13.948;2022-10-15T02:26:37;13.30;99.90
3994;DHT22;2011;48.238;13.948;2022-10-15T02:29:07;13.30;99.90
3994;DHT22;2011;48.238;13.948;2022-10-15T02:31:38;13.30;99.90
3994;DHT22;2011;48.238;13.948;2022-10-15T02:34:11;13.30;99.90
3994;DHT22;2011;48.238;13.948;2022-10-15T02:36:40;13.30;99.90
3994;DHT22;2011;48.238;13.948;2022-10-15T02:39:10;13.30;99.90
3994;DHT22;2011;48.238;13.948;2022-10-15T02:41:38;13.30;99.90
3994;DHT22;2011;48.238;13.948;2022-10-15T02:44:05;13.30;99.90
3994;DHT22;2011;48.238;13.948;2022-10-15T02:46:32;13.20;99.90
3994;DHT22;2011;48.238;13.948;2022-10-15T02:48:59;13.20;99.90
3994;DHT22;2011;48.238;13.948;2022-10-15T02:51:30;13.20;99.90
3994;DHT22;2011;48.238;13.948;2022-10-15T02:53:58;13.20;99.90
3994;DHT22;2011;48.238;13.948;2022-10-15T02:56:25;13.20;99.90
3994;DHT22;2011;48.238;13.948;2022-10-15T02:58:52;13.20;99.90
3994;DHT22;2011;48.238;13.948;2022-10-15T03:01:19;13.20;99.90
3994;DHT22;2011;48.238;13.948;2022-10-15T03:03:46;13.20;99.90
3994;DHT22;2011;48.238;13.948;2022-10-15T03:06:14;13.20;99.90
3994;DHT22;2011;48.238;13.948;2022-10-15T03:08:42;13.20;99.90
3994;DHT22;2011;48.238;13.948;2022-10-15T03:11:10;13.20;99.90
3994;DHT22;2011;48.238;13.948;2022-10-15T03:13:38;13.20;99.90
3994;DHT22;2011;48.238;13.948;2022-10-15T03:16:06;13.20;99.90
3994;DHT22;2011;48.238;13.948;2022-10-15T03:18:34;13.20;99.90
3994;DHT22;2011;48.238;13.948;2022-10-15T03:21:02;13.20;99.90
3994;DHT22;2011;48.238;13.948;2022-10-15T03:23:29;13.20;99.90
3994;DHT22;2011;48.238;13.948;2022-10-15T03:25:57;13.20;99.90
3994;DHT22;2011;48.238;13.948;2022-10-15T03:28:24;13.20;99.90
3994;DHT22;2011;48.238;13.948;2022-10-15T03:30:51;13.10;99.90
3994;DHT22;2011;48.238;13.948;2022-10-15T03:33:18;13.20;99.90
3994;DHT22;2011;48.238;13.948;2022-10-15T03:35:45;13.10;99.90
3994;DHT22;2011;48.238;13.948;2022-10-15T03:38:13;13.20;99.90
3994;DHT22;2011;48.238;13.948;2022-10-15T03:40:40;13.20;99.90
3994;DHT22;2011;48.238;13.948;2022-10-15T03:43:08;13.20;99.90
3994;DHT22;2011;48.238;13.948;2022-10-15T03:45:35;13.20;99.90
3994;DHT22;2011;48.238;13.948;2022-10-15T03:48:02;13.10;99.90
3994;DHT22;2011;48.238;13.948;2022-10-15T03:50:29;13.20;99.90
3994;DHT22;2011;48.238;13.948;2022-10-15T03:52:56;13.20;99.90
3994;DHT22;2011;48.238;13.948;2022-10-15T03:55:23;13.20;99.90
3994;DHT22;2011;48.238;13.948;2022-10-15T03:57:51;13.20;99.90
3994;DHT22;2011;48.238;13.948;2022-10-15T04:00:19;13.20;99.90
3994;DHT22;2011;48.238;13.948;2022-10-15T04:02:46;13.20;99.90
3994;DHT22;2011;48.238;13.948;2022-10-15T04:05:13;13.20;99.90
3994;DHT22;2011;48.238;13.948;2022-10-15T04:07:40;13.20;99.90
3994;DHT22;2011;48.238;13.948;2022-10-15T04:10:08;13.20;99.90
3994;DHT22;2011;48.238;13.948;2022-10-15T04:12:35;13.20;99.90
3994;DHT22;2011;48.238;13.948;2022-10-15T04:15:02;13.10;99.90
3994;DHT22;2011;48.238;13.948;2022-10-15T04:17:31;13.20;99.90
3994;DHT22;2011;48.238;13.948;2022-10-15T04:19:58;13.20;99.90
3994;DHT22;2011;48.238;13.948;2022-10-15T04:22:25;13.20;99.90
3994;DHT22;2011;48.238;13.948;2022-10-15T04:24:52;13.20;99.90
3994;DHT22;2011;48.238;13.948;2022-10-15T04:27:19;13.20;99.90
3994;DHT22;2011;48.238;13.948;2022-10-15T04:29:46;13.20;99.90
3994;DHT22;2011;48.238;13.948;2022-10-15T04:32:14;13.20;99.90
3994;DHT22;2011;48.238;13.948;2022-10-15T04:34:43;13.20;99.90
3994;DHT22;2011;48.238;13.948;2022-10-15T04:37:11;13.20;99.90
3994;DHT22;2011;48.238;13.948;2022-10-15T04:39:38;13.20;99.90
3994;DHT22;2011;48.238;13.948;2022-10-15T04:42:05;13.20;99.90
3994;DHT22;2011;48.238;13.948;2022-10-15T04:44:32;13.10;99.90
3994;DHT22;2011;48.238;13.948;2022-10-15T04:47:00;13.20;99.90
3994;DHT22;2011;48.238;13.948;2022-10-15T04:49:27;13.10;99.90
3994;DHT22;2011;48.238;13.948;2022-10-15T04:51:55;13.20;99.90
3994;DHT22;2011;48.238;13.948;2022-10-15T04:54:22;13.20;99.90
3994;DHT22;2011;48.238;13.948;2022-10-15T04:56:49;13.20;99.90
3994;DHT22;2011;48.238;13.948;2022-10-15T04:59:16;13.20;99.90
3994;DHT22;2011;48.238;13.948;2022-10-15T05:01:43;13.10;99.90
3994;DHT22;2011;48.238;13.948;2022-10-15T05:04:10;13.10;99.90
3994;DHT22;2011;48.238;13.948;2022-10-15T05:06:38;13.10;99.90
3994;DHT22;2011;48.238;13.948;2022-10-15T05:09:06;13.10;99.90
3994;DHT22;2011;48.238;13.948;2022-10-15T05:11:36;13.10;99.90
3994;DHT22;2011;48.238;13.948;2022-10-15T05:14:03;13.10;99.90
3994;DHT22;2011;48.238;13.948;2022-10-15T05:16:31;13.20;99.90
3994;DHT22;2011;48.238;13.948;2022-10-15T05:18:59;13.20;99.90
3994;DHT22;2011;48.238;13.948;2022-10-15T05:21:27;13.20;99.90
3994;DHT22;2011;48.238;13.948;2022-10-15T05:23:56;13.20;99.90
3994;DHT22;2011;48.238;13.948;2022-10-15T05:26:25;13.20;99.90
3994;DHT22;2011;48.238;13.948;2022-10-15T05:28:54;13.20;99.90
3994;DHT22;2011;48.238;13.948;2022-10-15T05:31:22;13.20;99.90
3994;DHT22;2011;48.238;13.948;2022-10-15T05:33:51;13.20;99.90
3994;DHT22;2011;48.238;13.948;2022-10-15T05:36:20;13.20;99.90
3994;DHT22;2011;48.238;13.948;2022-10-15T05:38:49;13.20;99.90
3994;DHT22;2011;48.238;13.948;2022-10-15T05:41:17;13.20;99.90
3994;DHT22;2011;48.238;13.948;2022-10-15T05:43:47;13.20;99.90
3994;DHT22;2011;48.238;13.948;2022-10-15T05:46:14;13.20;99.90
3994;DHT22;2011;48.238;13.948;2022-10-15T05:48:40;13.20;99.90
3994;DHT22;2011;48.238;13.948;2022-10-15T05:51:10;13.10;99.90
3994;DHT22;2011;48.238;13.948;2022-10-15T05:53:37;13.10;99.90
3994;DHT22;2011;48.238;13.948;2022-10-15T05:56:05;13.10;99.90
3994;DHT22;2011;48.238;13.948;2022-10-15T05:58:34;13.10;99.90
3994;DHT22;2011;48.238;13.948;2022-10-15T06:01:05;13.10;99.90
3994;DHT22;2011;48.238;13.948;2022-10-15T06:03:32;13.10;99.90
3994;DHT22;2011;48.238;13.948;2022-10-15T06:05:59;13.10;99.90
3994;DHT22;2011;48.238;13.948;2022-10-15T06:08:27;13.10;99.90
3994;DHT22;2011;48.238;13.948;2022-10-15T06:10:54;13.10;99.90
3994;DHT22;2011;48.238;13.948;2022-10-15T06:13:23;13.00;99.90
3994;DHT22;2011;48.238;13.948;2022-10-15T06:15:50;13.10;99.90
3994;DHT22;2011;48.238;13.948;2022-10-15T06:18:18;13.10;99.90
3994;DHT22;2011;48.238;13.948;2022-10-15T06:20:50;13.10;99.90
3994;DHT22;2011;48.238;13.948;2022-10-15T06:23:17;13.10;99.90
3994;DHT22;2011;48.238;13.948;2022-10-15T06:25:44;13.10;99.90
3994;DHT22;2011;48.238;13.948;2022-10-15T06:28:11;13.10;99.90
3994;DHT22;2011;48.238;13.948;2022-10-15T06:30:38;13.10;99.90
3994;DHT22;2011;48.238;13.948;2022-10-15T06:33:06;13.10;99.90
3994;DHT22;2011;48.238;13.948;2022-10-15T06:35:34;13.10;99.90
3994;DHT22;2011;48.238;13.948;2022-10-15T06:38:02;13.10;99.90
3994;DHT22;2011;48.238;13.948;2022-10-15T06:40:29;13.10;99.90
3994;DHT22;2011;48.238;13.948;2022-10-15T06:43:02;13.00;99.90
3994;DHT22;2011;48.238;13.948;2022-10-15T06:45:29;13.10;99.90
3994;DHT22;2011;48.238;13.948;2022-10-15T06:47:56;13.10;99.90
3994;DHT22;2011;48.238;13.948;2022-10-15T06:50:23;13.10;99.90
3994;DHT22;2011;48.238;13.948;2022-10-15T06:52:51;13.10;99.90
3994;DHT22;2011;48.238;13.948;2022-10-15T06:55:18;13.10;99.90
3994;DHT22;2011;48.238;13.948;2022-10-15T06:57:45;13.10;99.90
3994;DHT22;2011;48.238;13.948;2022-10-15T07:00:14;13.10;99.90
3994;DHT22;2011;48.238;13.948;2022-10-15T07:02:41;13.10;99.90
3994;DHT22;2011;48.238;13.948;2022-10-15T07:05:08;13.20;99.90
3994;DHT22;2011;48.238;13.948;2022-10-15T07:07:35;13.20;99.90
3994;DHT22;2011;48.238;13.948;2022-10-15T07:10:04;13.20;99.90
3994;DHT22;2011;48.238;13.948;2022-10-15T07:12:32;13.10;99.90
3994;DHT22;2011;48.238;13.948;2022-10-15T07:14:59;13.20;99.90
3994;DHT22;2011;48.238;13.948;2022-10-15T07:17:27;13.10;99.90
3994;DHT22;2011;48.238;13.948;2022-10-15T07:19:55;13.10;99.90
3994;DHT22;2011;48.238;13.948;2022-10-15T07:22:22;13.10;99.90
3994;DHT22;2011;48.238;13.948;2022-10-15T07:24:49;13.10;99.90
3994;DHT22;2011;48.238;13.948;2022-10-15T07:27:18;13.20;99.90
3994;DHT22;2011;48.238;13.948;2022-10-15T07:29:45;13.20;99.90
3994;DHT22;2011;48.238;13.948;2022-10-15T07:32:12;13.10;99.90
3994;DHT22;2011;48.238;13.948;2022-10-15T07:34:39;13.20;99.90
3994;DHT22;2011;48.238;13.948;2022-10-15T07:37:06;13.20;99.90
3994;DHT22;2011;48.238;13.948;2022-10-15T07:39:33;13.20;99.90
3994;DHT22;2011;48.238;13.948;2022-10-15T07:42:00;13.20;99.90
3994;DHT22;2011;48.238;13.948;2022-10-15T07:44:29;13.20;99.90
3994;DHT22;2011;48.238;13.948;2022-10-15T07:46:56;13.30;99.90
3994;DHT22;2011;48.238;13.948;2022-10-15T07:49:23;13.30;99.90
3994;DHT22;2011;48.238;13.948;2022-10-15T07:51:50;13.30;99.90
3994;DHT22;2011;48.238;13.948;2022-10-15T07:54:17;13.30;99.90
3994;DHT22;2011;48.238;13.948;2022-10-15T07:56:44;13.40;99.90
3994;DHT22;2011;48.238;13.948;2022-10-15T07:59:11;13.40;99.90
3994;DHT22;2011;48.238;13.948;2022-10-15T08:01:39;13.40;99.90
3994;DHT22;2011;48.238;13.948;2022-10-15T08:04:06;13.40;99.90
3994;DHT22;2011;48.238;13.948;2022-10-15T08:06:33;13.40;99.90
3994;DHT22;2011;48.238;13.948;2022-10-15T08:09:00;13.50;99.90
3994;DHT22;2011;48.238;13.948;2022-10-15T08:11:29;13.50;99.90
3994;DHT22;2011;48.238;13.948;2022-10-15T08:13:56;13.50;99.90
3994;DHT22;2011;48.238;13.948;2022-10-15T08:16:23;13.50;99.90
3994;DHT22;2011;48.238;13.948;2022-10-15T08:18:52;13.50;99.90
3994;DHT22;2011;48.238;13.948;2022-10-15T08:21:19;13.50;99.90
3994;DHT22;2011;48.238;13.948;2022-10-15T08:23:46;13.50;99.90
3994;DHT22;2011;48.238;13.948;2022-10-15T08:26:13;13.50;99.90
3994;DHT22;2011;48.238;13.948;2022-10-15T08:28:40;13.60;99.90
3994;DHT22;2011;48.238;13.948;2022-10-15T08:31:07;13.60;99.90
3994;DHT22;2011;48.238;13.948;2022-10-15T08:33:35;13.60;99.90
3994;DHT22;2011;48.238;13.948;2022-10-15T08:36:05;13.60;99.90
3994;DHT22;2011;48.238;13.948;2022-10-15T08:38:33;13.60;99.90
3994;DHT22;2011;48.238;13.948;2022-10-15T08:41:02;13.60;99.90
3994;DHT22;2011;48.238;13.948;2022-10-15T08:43:35;13.60;99.90
3994;DHT22;2011;48.238;13.948;2022-10-15T08:46:08;13.60;99.90
3994;DHT22;2011;48.238;13.948;2022-10-15T08:48:39;13.60;99.90
3994;DHT22;2011;48.238;13.948;2022-10-15T08:51:11;13.60;99.90
3994;DHT22;2011;48.238;13.948;2022-10-15T08:53:42;13.60;99.90
3994;DHT22;2011;48.238;13.948;2022-10-15T08:56:15;13.60;99.90
3994;DHT22;2011;48.238;13.948;2022-10-15T08:58:52;13.60;99.90
3994;DHT22;2011;48.238;13.948;2022-10-15T09:01:27;13.70;99.90
3994;DHT22;2011;48.238;13.948;2022-10-15T09:04:07;13.70;99.90
3994;DHT22;2011;48.238;13.948;2022-10-15T09:06:41;13.70;99.90
3994;DHT22;2011;48.238;13.948;2022-10-15T09:09:17;13.70;99.90
3994;DHT22;2011;48.238;13.948;2022-10-15T09:11:55;13.80;99.90
3994;DHT22;2011;48.238;13.948;2022-10-15T09:14:28;13.80;99.90
3994;DHT22;2011;48.238;13.948;2022-10-15T09:16:58;13.90;99.90
3994;DHT22;2011;48.238;13.948;2022-10-15T09:19:28;13.90;99.90
3994;DHT22;2011;48.238;13.948;2022-10-15T09:21:59;13.90;99.90
3994;DHT22;2011;48.238;13.948;2022-10-15T09:24:28;13.90;99.90
3994;DHT22;2011;48.238;13.948;2022-10-15T09:27:02;13.80;99.90
3994;DHT22;2011;48.238;13.948;2022-10-15T09:29:38;13.80;99.90
3994;DHT22;2011;48.238;13.948;2022-10-15T09:32:14;13.80;99.90
3994;DHT22;2011;48.238;13.948;2022-10-15T09:34:46;13.70;99.90
3994;DHT22;2011;48.238;13.948;2022-10-15T09:37:20;13.80;99.90
3994;DHT22;2011;48.238;13.948;2022-10-15T09:40:02;13.80;99.90
3994;DHT22;2011;48.238;13.948;2022-10-15T09:42:37;13.80;99.90
3994;DHT22;2011;48.238;13.948;2022-10-15T09:45:10;13.80;99.90
3994;DHT22;2011;48.238;13.948;2022-10-15T09:47:39;13.80;99.90
3994;DHT22;2011;48.238;13.948;2022-10-15T09:50:09;13.90;99.90
3994;DHT22;2011;48.238;13.948;2022-10-15T09:52:52;13.80;99.90
3994;DHT22;2011;48.238;13.948;2022-10-15T09:55:36;13.80;99.90
3994;DHT22;2011;48.238;13.948;2022-10-15T09:58:10;13.90;99.90
3994;DHT22;2011;48.238;13.948;2022-10-15T10:00:57;14.00;99.90
3994;DHT22;2011;48.238;13.948;2022-10-15T10:03:26;13.90;99.90
3994;DHT22;2011;48.238;13.948;2022-10-15T10:06:05;13.90;99.90
3994;DHT22;2011;48.238;13.948;2022-10-15T10:08:37;14.00;99.90
3994;DHT22;2011;48.238;13.948;2022-10-15T10:11:07;14.10;99.90
3994;DHT22;2011;48.238;13.948;2022-10-15T10:13:39;14.10;99.90
3994;DHT22;2011;48.238;13.948;2022-10-15T10:16:09;14.10;99.90
3994;DHT22;2011;48.238;13.948;2022-10-15T10:18:37;14.20;99.90
3994;DHT22;2011;48.238;13.948;2022-10-15T10:21:05;14.30;99.90
3994;DHT22;2011;48.238;13.948;2022-10-15T10:23:36;14.30;99.90
3994;DHT22;2011;48.238;13.948;2022-10-15T10:26:05;14.40;99.90
3994;DHT22;2011;48.238;13.948;2022-10-15T10:28:35;14.40;99.90
3994;DHT22;2011;48.238;13.948;2022-10-15T10:31:04;14.50;99.90
3994;DHT22;2011;48.238;13.948;2022-10-15T10:33:35;14.60;99.90
3994;DHT22;2011;48.238;13.948;2022-10-15T10:36:05;14.60;99.90
3994;DHT22;2011;48.238;13.948;2022-10-15T10:38:35;14.70;99.90
3994;DHT22;2011;48.238;13.948;2022-10-15T10:41:05;14.70;99.90
3994;DHT22;2011;48.238;13.948;2022-10-15T10:43:35;14.80;99.90
3994;DHT22;2011;48.238;13.948;2022-10-15T10:46:04;14.90;99.90
3994;DHT22;2011;48.238;13.948;2022-10-15T10:48:40;14.90;99.90
3994;DHT22;2011;48.238;13.948;2022-10-15T10:51:11;15.00;99.90
3994;DHT22;2011;48.238;13.948;2022-10-15T10:53:47;15.10;99.90
3994;DHT22;2011;48.238;13.948;2022-10-15T10:56:17;15.10;99.90
3994;DHT22;2011;48.238;13.948;2022-10-15T10:58:48;15.10;99.90
3994;DHT22;2011;48.238;13.948;2022-10-15T11:01:18;15.10;99.90
3994;DHT22;2011;48.238;13.948;2022-10-15T11:03:45;15.20;99.90
3994;DHT22;2011;48.238;13.948;2022-10-15T11:09:36;15.30;99.90
3994;DHT22;2011;48.238;13.948;2022-10-15T11:12:13;15.50;99.90
3994;DHT22;2011;48.238;13.948;2022-10-15T11:14:46;15.70;99.90
3994;DHT22;2011;48.238;13.948;2022-10-15T11:17:24;15.80;99.90
3994;DHT22;2011;48.238;13.948;2022-10-15T11:19:58;15.90;99.90
3994;DHT22;2011;48.238;13.948;2022-10-15T11:22:43;16.00;99.90
3994;DHT22;2011;48.238;13.948;2022-10-15T11:25:22;16.10;99.90
3994;DHT22;2011;48.238;13.948;2022-10-15T11:28:03;16.20;99.90
3994;DHT22;2011;48.238;13.948;2022-10-15T11:30:41;16.20;99.90
3994;DHT22;2011;48.238;13.948;2022-10-15T11:33:30;16.30;99.90
3994;DHT22;2011;48.238;13.948;2022-10-15T11:36:16;16.30;99.90
3994;DHT22;2011;48.238;13.948;2022-10-15T11:38:48;16.40;99.90
3994;DHT22;2011;48.238;13.948;2022-10-15T11:41:30;16.40;99.90
3994;DHT22;2011;48.238;13.948;2022-10-15T11:44:14;16.40;99.90
3994;DHT22;2011;48.238;13.948;2022-10-15T11:46:49;16.40;99.90
3994;DHT22;2011;48.238;13.948;2022-10-15T11:49:30;16.40;99.90
3994;DHT22;2011;48.238;13.948;2022-10-15T11:52:26;16.40;99.90
3994;DHT22;2011;48.238;13.948;2022-10-15T11:55:03;16.40;99.90
3994;DHT22;2011;48.238;13.948;2022-10-15T11:57:36;16.40;99.90
3994;DHT22;2011;48.238;13.948;2022-10-15T12:00:14;16.50;99.90
3994;DHT22;2011;48.238;13.948;2022-10-15T12:02:46;16.50;99.90
3994;DHT22;2011;48.238;13.948;2022-10-15T12:05:18;16.60;99.90
3994;DHT22;2011;48.238;13.948;2022-10-15T12:07:48;16.70;99.90
3994;DHT22;2011;48.238;13.948;2022-10-15T12:10:29;16.70;99.90
3994;DHT22;2011;48.238;13.948;2022-10-15T12:13:05;16.70;99.90
3994;DHT22;2011;48.238;13.948;2022-10-15T12:15:41;16.80;99.90
3994;DHT22;2011;48.238;13.948;2022-10-15T12:18:18;16.80;99.90
3994;DHT22;2011;48.238;13.948;2022-10-15T12:20:46;16.80;99.90
3994;DHT22;2011;48.238;13.948;2022-10-15T12:23:24;16.90;99.90
3994;DHT22;2011;48.238;13.948;2022-10-15T12:25:51;17.00;99.90
3994;DHT22;2011;48.238;13.948;2022-10-15T12:28:22;17.10;99.90
3994;DHT22;2011;48.238;13.948;2022-10-15T12:30:54;17.20;99.90
3994;DHT22;2011;48.238;13.948;2022-10-15T12:33:25;17.40;99.90
3994;DHT22;2011;48.238;13.948;2022-10-15T12:35:56;17.60;99.90
3994;DHT22;2011;48.238;13.948;2022-10-15T12:38:28;17.70;99.90
3994;DHT22;2011;48.238;13.948;2022-10-15T12:41:02;17.70;99.90
3994;DHT22;2011;48.238;13.948;2022-10-15T12:43:33;17.60;99.90
3994;DHT22;2011;48.238;13.948;2022-10-15T12:46:02;17.60;99.90
3994;DHT22;2011;48.238;13.948;2022-10-15T12:48:33;17.60;99.90
3994;DHT22;2011;48.238;13.948;2022-10-15T12:54:34;17.50;99.90
3994;DHT22;2011;48.238;13.948;2022-10-15T12:57:11;17.50;99.90
3994;DHT22;2011;48.238;13.948;2022-10-15T12:59:56;17.60;99.90
3994;DHT22;2011;48.238;13.948;2022-10-15T13:02:36;17.70;99.90
3994;DHT22;2011;48.238;13.948;2022-10-15T13:05:05;17.80;99.90
3994;DHT22;2011;48.238;13.948;2022-10-15T13:07:34;17.90;99.90
3994;DHT22;2011;48.238;13.948;2022-10-15T13:10:04;18.00;99.90
3994;DHT22;2011;48.238;13.948;2022-10-15T13:12:31;18.00;99.90
3994;DHT22;2011;48.238;13.948;2022-10-15T13:15:02;18.00;99.90
3994;DHT22;2011;48.238;13.948;2022-10-15T13:17:31;18.00;99.90
3994;DHT22;2011;48.238;13.948;2022-10-15T13:19:59;18.00;99.90
3994;DHT22;2011;48.238;13.948;2022-10-15T13:22:31;18.10;99.90
3994;DHT22;2011;48.238;13.948;2022-10-15T13:24:58;18.20;99.90
3994;DHT22;2011;48.238;13.948;2022-10-15T13:27:28;18.20;99.90
3994;DHT22;2011;48.238;13.948;2022-10-15T13:29:58;18.20;99.90
3994;DHT22;2011;48.238;13.948;2022-10-15T13:32:29;18.20;99.90
3994;DHT22;2011;48.238;13.948;2022-10-15T13:34:57;18.20;99.90
3994;DHT22;2011;48.238;13.948;2022-10-15T13:37:30;18.20;99.90
3994;DHT22;2011;48.238;13.948;2022-10-15T13:39:58;18.20;99.90
3994;DHT22;2011;48.238;13.948;2022-10-15T13:42:25;18.20;99.90
3994;DHT22;2011;48.238;13.948;2022-10-15T13:44:56;18.20;99.90
3994;DHT22;2011;48.238;13.948;2022-10-15T13:47:27;18.20;99.90
3994;DHT22;2011;48.238;13.948;2022-10-15T13:50:18;18.20;99.90
3994;DHT22;2011;48.238;13.948;2022-10-15T13:52:48;18.20;99.90
3994;DHT22;2011;48.238;13.948;2022-10-15T13:55:18;18.20;99.90
3994;DHT22;2011;48.238;13.948;2022-10-15T13:57:46;18.20;99.90
3994;DHT22;2011;48.238;13.948;2022-10-15T14:00:23;18.20;99.90
3994;DHT22;2011;48.238;13.948;2022-10-15T14:03:14;18.20;99.90
3994;DHT22;2011;48.238;13.948;2022-10-15T14:05:42;18.30;99.90
3994;DHT22;2011;48.238;13.948;2022-10-15T14:08:21;18.30;99.90
3994;DHT22;2011;48.238;13.948;2022-10-15T14:10:49;18.30;99.90
3994;DHT22;2011;48.238;13.948;2022-10-15T14:13:16;18.40;99.90
3994;DHT22;2011;48.238;13.948;2022-10-15T14:16:00;18.50;99.90
3994;DHT22;2011;48.238;13.948;2022-10-15T14:18:32;18.50;99.90
3994;DHT22;2011;48.238;13.948;2022-10-15T14:21:00;18.50;99.90
3994;DHT22;2011;48.238;13.948;2022-10-15T14:23:27;18.50;99.90
3994;DHT22;2011;48.238;13.948;2022-10-15T14:25:57;18.30;99.90
3994;DHT22;2011;48.238;13.948;2022-10-15T14:28:26;18.20;99.90
3994;DHT22;2011;48.238;13.948;2022-10-15T14:30:54;18.10;99.90
3994;DHT22;2011;48.238;13.948;2022-10-15T14:33:40;18.20;99.90
3994;DHT22;2011;48.238;13.948;2022-10-15T14:36:12;18.20;99.90
3994;DHT22;2011;48.238;13.948;2022-10-15T14:38:40;18.10;99.90
3994;DHT22;2011;48.238;13.948;2022-10-15T14:41:23;18.10;99.90
3994;DHT22;2011;48.238;13.948;2022-10-15T14:44:16;18.00;99.90
3994;DHT22;2011;48.238;13.948;2022-10-15T14:46:45;18.00;99.90
3994;DHT22;2011;48.238;13.948;2022-10-15T14:49:23;17.90;99.90
3994;DHT22;2011;48.238;13.948;2022-10-15T14:51:54;17.90;99.90
3994;DHT22;2011;48.238;13.948;2022-10-15T14:54:26;17.80;99.90
3994;DHT22;2011;48.238;13.948;2022-10-15T14:56:57;17.70;99.90
3994;DHT22;2011;48.238;13.948;2022-10-15T14:59:32;17.60;99.90
3994;DHT22;2011;48.238;13.948;2022-10-15T15:02:01;17.50;99.90
3994;DHT22;2011;48.238;13.948;2022-10-15T15:04:39;17.50;99.90
3994;DHT22;2011;48.238;13.948;2022-10-15T15:07:15;17.60;99.90
3994;DHT22;2011;48.238;13.948;2022-10-15T15:09:45;17.50;99.90
3994;DHT22;2011;48.238;13.948;2022-10-15T15:12:18;17.40;99.90
3994;DHT22;2011;48.238;13.948;2022-10-15T15:14:46;17.30;99.90
3994;DHT22;2011;48.238;13.948;2022-10-15T15:17:15;17.20;99.90
3994;DHT22;2011;48.238;13.948;2022-10-15T15:19:44;17.00;99.90
3994;DHT22;2011;48.238;13.948;2022-10-15T15:22:13;17.00;99.90
3994;DHT22;2011;48.238;13.948;2022-10-15T15:24:41;16.90;99.90
3994;DHT22;2011;48.238;13.948;2022-10-15T15:27:23;16.90;99.90
3994;DHT22;2011;48.238;13.948;2022-10-15T15:29:50;16.80;99.90
3994;DHT22;2011;48.238;13.948;2022-10-15T15:32:17;16.70;99.90
3994;DHT22;2011;48.238;13.948;2022-10-15T15:34:46;16.60;99.90
3994;DHT22;2011;48.238;13.948;2022-10-15T15:37:14;16.60;99.90
3994;DHT22;2011;48.238;13.948;2022-10-15T15:39:41;16.60;99.90
3994;DHT22;2011;48.238;13.948;2022-10-15T15:42:11;16.60;99.90
3994;DHT22;2011;48.238;13.948;2022-10-15T15:44:38;16.60;99.90
3994;DHT22;2011;48.238;13.948;2022-10-15T15:47:08;16.70;99.90
3994;DHT22;2011;48.238;13.948;2022-10-15T15:49:36;16.80;99.90
3994;DHT22;2011;48.238;13.948;2022-10-15T15:52:05;17.00;99.90
3994;DHT22;2011;48.238;13.948;2022-10-15T15:54:33;17.20;99.90
3994;DHT22;2011;48.238;13.948;2022-10-15T15:57:00;17.40;99.90
3994;DHT22;2011;48.238;13.948;2022-10-15T15:59:27;17.50;99.90
3994;DHT22;2011;48.238;13.948;2022-10-15T16:01:54;17.60;99.90
3994;DHT22;2011;48.238;13.948;2022-10-15T16:04:21;17.70;99.90
3994;DHT22;2011;48.238;13.948;2022-10-15T16:06:48;17.50;99.90
3994;DHT22;2011;48.238;13.948;2022-10-15T16:09:17;17.40;99.90
3994;DHT22;2011;48.238;13.948;2022-10-15T16:11:47;17.30;99.90
3994;DHT22;2011;48.238;13.948;2022-10-15T16:14:14;17.10;99.90
3994;DHT22;2011;48.238;13.948;2022-10-15T16:16:42;17.10;99.90
3994;DHT22;2011;48.238;13.948;2022-10-15T16:19:09;17.00;99.90
3994;DHT22;2011;48.238;13.948;2022-10-15T16:21:36;16.90;99.90
3994;DHT22;2011;48.238;13.948;2022-10-15T16:24:04;16.90;99.90